createdAt,value
2023-02-20T00:00:06.738Z,6.23
2023-02-20T00:02:54.869Z,6.57
2023-02-20T00:05:43.020Z,7.37
2023-02-20T00:08:30.854Z,7.20
2023-02-20T00:11:18.679Z,7.63
2023-02-20T00:14:08.162Z,7.47
2023-02-20T00:16:55.980Z,8.73
2023-02-20T00:19:43.733Z,8.57
2023-02-20T00:22:31.525Z,8.40
2023-02-20T00:25:20.929Z,8.97
2023-02-20T00:28:09.071Z,8.50
2023-02-20T00:30:59.068Z,8.97
2023-02-20T00:33:47.160Z,8.17
2023-02-20T00:36:34.990Z,8.23
2023-02-20T00:39:22.921Z,7.87
2023-02-20T00:42:11.046Z,8.20
2023-02-20T00:44:58.834Z,8.40
2023-02-20T00:47:48.130Z,7.23
2023-02-20T00:50:36.146Z,6.97
2023-02-20T00:53:24.053Z,6.97
2023-02-20T00:56:13.689Z,5.97
2023-02-20T00:59:01.747Z,6.40
2023-02-20T01:01:49.671Z,6.17
2023-02-20T01:04:39.285Z,6.13
2023-02-20T01:07:27.089Z,5.33
2023-02-20T01:10:15.572Z,5.30
2023-02-20T01:13:03.379Z,5.53
2023-02-20T01:15:51.368Z,5.33
2023-02-20T01:18:39.167Z,4.77
2023-02-20T01:21:28.273Z,5.00
2023-02-20T01:24:16.469Z,4.93
2023-02-20T01:27:04.472Z,4.73
2023-02-20T01:29:52.271Z,3.77
2023-02-20T01:32:40.083Z,3.93
2023-02-20T01:35:30.996Z,3.90
2023-02-20T01:38:20.754Z,3.63
2023-02-20T01:41:09.555Z,3.90
2023-02-20T01:43:57.459Z,4.07
2023-02-20T01:46:51.362Z,3.20
2023-02-20T01:49:42.712Z,3.30
2023-02-20T01:52:34.415Z,3.20
2023-02-20T01:55:26.729Z,3.10
2023-02-20T01:58:20.439Z,3.13
2023-02-20T02:01:08.341Z,3.10
2023-02-20T02:04:01.051Z,2.30
2023-02-20T02:06:52.675Z,2.53
2023-02-20T02:09:48.013Z,2.70
2023-02-20T02:12:38.166Z,2.70
2023-02-20T02:15:26.642Z,2.50
2023-02-20T02:18:30.443Z,2.80
2023-02-20T02:21:54.458Z,2.53
2023-02-20T02:25:08.961Z,2.80
2023-02-20T02:28:30.044Z,2.90
2023-02-20T02:31:59.277Z,3.13
2023-02-20T02:35:20.805Z,3.70
2023-02-20T02:38:18.922Z,4.33
2023-02-20T02:41:14.697Z,3.77
2023-02-20T02:44:10.993Z,3.73
2023-02-20T02:47:03.392Z,4.80
2023-02-20T02:49:58.264Z,5.73
2023-02-20T02:52:49.748Z,6.20
2023-02-20T02:55:38.867Z,5.90
2023-02-20T02:58:26.807Z,6.10
2023-02-20T03:01:16.563Z,6.67
2023-02-20T03:04:08.609Z,5.83
2023-02-20T03:07:01.105Z,6.57
2023-02-20T03:09:53.331Z,7.17
2023-02-20T03:12:44.654Z,6.70
2023-02-20T03:15:35.694Z,6.53
2023-02-20T03:18:34.578Z,6.77
2023-02-20T03:21:24.592Z,5.67
2023-02-20T03:24:14.269Z,6.30
2023-02-20T03:27:03.663Z,6.80
2023-02-20T03:29:55.909Z,7.50
2023-02-20T03:33:02.709Z,7.67
2023-02-20T03:36:09.995Z,7.10
2023-02-20T03:39:21.593Z,7.63
2023-02-20T03:42:29.398Z,7.27
2023-02-20T03:45:23.170Z,7.67
2023-02-20T03:48:15.789Z,8.20
2023-02-20T03:51:21.840Z,8.40
2023-02-20T03:54:10.438Z,8.20
2023-02-20T03:57:04.293Z,8.47
2023-02-20T03:59:56.449Z,8.57
2023-02-20T04:02:48.593Z,8.90
2023-02-20T04:05:40.324Z,8.83
2023-02-20T04:08:35.812Z,9.00
2023-02-20T04:11:27.713Z,9.13
2023-02-20T04:14:19.351Z,9.00
2023-02-20T04:17:12.242Z,9.60
2023-02-20T04:20:01.409Z,10.60
2023-02-20T04:22:51.400Z,9.97
2023-02-20T04:25:43.524Z,9.90
2023-02-20T04:28:31.936Z,10.77
2023-02-20T04:31:21.741Z,10.40
2023-02-20T04:34:09.682Z,10.63
2023-02-20T04:37:07.904Z,10.93
2023-02-20T04:39:55.792Z,11.03
2023-02-20T04:42:43.719Z,11.40
2023-02-20T04:45:31.610Z,11.50
2023-02-20T04:48:19.480Z,11.53
2023-02-20T04:51:07.543Z,11.73
2023-02-20T04:53:57.373Z,11.43
2023-02-20T04:56:45.348Z,11.90
2023-02-20T04:59:33.156Z,11.37
2023-02-20T05:02:21.128Z,11.33
2023-02-20T05:05:17.747Z,10.90
2023-02-20T05:08:08.083Z,10.93
2023-02-20T05:10:57.286Z,10.90
2023-02-20T05:13:45.118Z,11.10
2023-02-20T05:16:33.218Z,10.30
2023-02-20T05:19:21.074Z,10.23
2023-02-20T05:22:19.849Z,9.93
2023-02-20T05:25:09.188Z,10.50
2023-02-20T05:27:58.980Z,10.40
2023-02-20T05:30:47.068Z,10.20
2023-02-20T05:33:34.974Z,10.43
2023-02-20T05:36:22.826Z,9.87
2023-02-20T05:39:10.887Z,10.23
2023-02-20T05:41:58.749Z,9.93
2023-02-20T05:44:49.624Z,9.20
2023-02-20T05:47:38.348Z,9.83
2023-02-20T05:50:26.155Z,9.60
2023-02-20T05:53:13.925Z,9.30
2023-02-20T05:56:01.728Z,9.00
2023-02-20T05:58:49.909Z,8.83
2023-02-20T06:01:39.163Z,8.33
2023-02-20T06:04:27.772Z,8.83
2023-02-20T06:07:15.625Z,8.27
2023-02-20T06:10:03.592Z,7.67
2023-02-20T06:12:51.453Z,7.37
2023-02-20T06:15:39.406Z,8.00
2023-02-20T06:18:28.511Z,6.97
2023-02-20T06:21:16.319Z,7.10
2023-02-20T06:24:04.473Z,7.10
2023-02-20T06:26:52.427Z,7.20
2023-02-20T06:29:40.284Z,6.87
2023-02-20T06:32:28.150Z,6.67
2023-02-20T06:35:17.874Z,6.63
2023-02-20T06:38:05.655Z,6.53
2023-02-20T06:40:53.713Z,6.47
2023-02-20T06:43:41.514Z,5.93
2023-02-20T06:46:29.494Z,5.50
2023-02-20T06:49:17.453Z,5.73
2023-02-20T06:52:09.011Z,5.90
2023-02-20T06:54:56.862Z,5.90
2023-02-20T06:57:44.734Z,5.10
2023-02-20T07:00:32.942Z,5.13
2023-02-20T07:03:21.873Z,5.20
2023-02-20T07:06:10.099Z,4.70
2023-02-20T07:08:59.398Z,4.37
2023-02-20T07:11:51.054Z,4.57
2023-02-20T07:14:38.873Z,4.47
2023-02-20T07:17:26.992Z,4.80
2023-02-20T07:20:15.962Z,4.40
2023-02-20T07:23:04.282Z,4.23
2023-02-20T07:25:53.528Z,4.83
2023-02-20T07:28:43.188Z,4.93
2023-02-20T07:31:31.554Z,4.40
2023-02-20T07:34:19.401Z,4.53
2023-02-20T07:37:07.467Z,4.53
2023-02-20T07:39:55.352Z,4.30
2023-02-20T07:42:44.473Z,4.50
2023-02-20T07:45:35.226Z,4.40
2023-02-20T07:48:23.108Z,4.43
2023-02-20T07:51:10.960Z,3.77
2023-02-20T07:53:58.775Z,3.90
2023-02-20T07:56:46.623Z,3.93
2023-02-20T07:59:36.132Z,3.83
2023-02-20T08:02:23.962Z,3.77
2023-02-20T08:05:12.461Z,3.40
2023-02-20T08:08:00.296Z,3.37
2023-02-20T08:10:50.511Z,3.63
2023-02-20T08:13:40.098Z,3.60
2023-02-20T08:16:29.296Z,3.93
2023-02-20T08:19:17.365Z,4.07
2023-02-20T08:22:05.328Z,3.67
2023-02-20T08:24:53.151Z,3.53
2023-02-20T08:27:43.945Z,3.60
2023-02-20T08:30:31.935Z,3.93
2023-02-20T08:33:21.148Z,3.70
2023-02-20T08:36:09.741Z,3.70
2023-02-20T08:38:57.928Z,4.38
2023-02-20T08:41:46.577Z,4.00
2023-02-20T08:44:34.468Z,4.03
2023-02-20T08:47:23.604Z,3.90
2023-02-20T08:50:12.843Z,4.60
2023-02-20T08:53:00.789Z,3.90
2023-02-20T08:55:48.691Z,3.27
2023-02-20T08:58:36.843Z,3.60
2023-02-20T09:01:25.646Z,3.50
2023-02-20T09:04:13.534Z,3.73
2023-02-20T09:07:02.883Z,4.00
2023-02-20T09:09:51.583Z,3.60
2023-02-20T09:12:41.931Z,3.40
2023-02-20T09:15:31.576Z,3.90
2023-02-20T09:18:19.412Z,3.90
2023-02-20T09:21:11.174Z,3.63
2023-02-20T09:24:00.311Z,3.43
2023-02-20T09:26:48.616Z,3.73
2023-02-20T09:29:41.038Z,3.17
2023-02-20T09:32:29.270Z,3.50
2023-02-20T09:35:19.955Z,3.37
2023-02-20T09:38:08.010Z,2.90
2023-02-20T09:41:00.065Z,2.90
2023-02-20T09:43:56.987Z,2.90
2023-02-20T09:46:48.218Z,2.80
2023-02-20T09:49:38.268Z,2.53
2023-02-20T09:52:26.607Z,2.80
2023-02-20T09:55:21.262Z,2.33
2023-02-20T09:58:19.496Z,2.23
2023-02-20T10:01:08.852Z,2.47
2023-02-20T10:03:58.682Z,2.17
2023-02-20T10:06:48.661Z,2.33
2023-02-20T10:09:36.497Z,2.20
2023-02-20T10:12:32.523Z,1.83
2023-02-20T10:15:25.748Z,2.10
2023-02-20T10:18:27.112Z,1.93
2023-02-20T10:21:21.884Z,2.23
2023-02-20T10:24:32.763Z,2.03
2023-02-20T10:27:31.356Z,2.50
2023-02-20T10:30:25.242Z,2.17
2023-02-20T10:33:24.515Z,2.00
2023-02-20T10:36:17.171Z,2.10
2023-02-20T10:39:10.087Z,2.17
2023-02-20T10:42:04.542Z,2.00
2023-02-20T10:44:59.276Z,2.03
2023-02-20T10:47:53.972Z,2.13
2023-02-20T10:50:46.243Z,1.90
2023-02-20T10:53:40.789Z,1.83
2023-02-20T10:56:34.954Z,2.07
2023-02-20T10:59:26.514Z,2.37
2023-02-20T11:02:21.001Z,2.57
2023-02-20T11:05:13.895Z,2.50
2023-02-20T11:08:01.744Z,2.50
2023-02-20T11:10:49.908Z,2.50
2023-02-20T11:13:39.369Z,2.53
2023-02-20T11:16:32.029Z,2.47
2023-02-20T11:19:23.923Z,2.70
2023-02-20T11:22:13.378Z,2.60
2023-02-20T11:25:16.270Z,2.70
2023-02-20T11:28:12.413Z,2.57
2023-02-20T11:31:03.218Z,2.60
2023-02-20T11:33:51.371Z,2.50
2023-02-20T11:36:44.015Z,2.73
2023-02-20T11:39:34.593Z,2.47
2023-02-20T11:42:23.695Z,2.60
2023-02-20T11:45:15.734Z,2.67
2023-02-20T11:48:10.085Z,2.73
2023-02-20T11:50:57.913Z,2.60
2023-02-20T11:53:45.749Z,2.77
2023-02-20T11:56:35.337Z,2.87
2023-02-20T11:59:32.155Z,2.97
2023-02-20T12:02:28.639Z,2.47
2023-02-20T12:05:16.811Z,3.07
2023-02-20T12:08:04.850Z,2.60
2023-02-20T12:10:55.738Z,2.70
2023-02-20T12:13:47.496Z,2.93
2023-02-20T12:16:54.357Z,3.23
2023-02-20T12:19:52.088Z,2.90
2023-02-20T12:22:46.815Z,3.20
2023-02-20T12:25:43.841Z,3.10
2023-02-20T12:28:42.845Z,2.83
2023-02-20T12:31:41.922Z,3.70
2023-02-20T12:34:45.618Z,3.60
2023-02-20T12:37:45.150Z,3.47
2023-02-20T12:40:52.998Z,3.80
2023-02-20T12:43:48.278Z,4.00
2023-02-20T12:46:46.810Z,3.70
2023-02-20T12:49:55.398Z,4.30
2023-02-20T12:53:08.053Z,4.30
2023-02-20T12:56:11.095Z,4.53
2023-02-20T12:59:06.252Z,5.00
2023-02-20T13:01:56.482Z,4.20
2023-02-20T13:04:47.890Z,4.03
2023-02-20T13:07:40.032Z,3.77
2023-02-20T13:10:31.119Z,3.70
2023-02-20T13:13:19.470Z,3.40
2023-02-20T13:16:12.084Z,3.40
2023-02-20T13:19:08.188Z,3.93
2023-02-20T13:21:57.520Z,3.63
2023-02-20T13:24:45.314Z,3.57
2023-02-20T13:27:33.839Z,3.27
2023-02-20T13:30:23.267Z,3.30
2023-02-20T13:33:19.024Z,3.67
2023-02-20T13:36:19.564Z,3.40
2023-02-20T13:39:48.002Z,2.97
2023-02-20T13:42:36.699Z,2.90
2023-02-20T13:45:39.838Z,3.10
2023-02-20T13:48:43.061Z,2.90
2023-02-20T13:51:36.910Z,2.63
2023-02-20T13:54:28.286Z,2.73
2023-02-20T13:57:19.771Z,3.17
2023-02-20T14:00:30.669Z,3.40
2023-02-20T14:03:24.978Z,3.60
2023-02-20T14:06:15.912Z,4.13
2023-02-20T14:09:11.794Z,4.10
2023-02-20T14:12:13.497Z,4.03
2023-02-20T14:15:05.236Z,3.70
2023-02-20T14:17:55.508Z,4.07
2023-02-20T14:20:44.684Z,4.03
2023-02-20T14:23:33.819Z,4.07
2023-02-20T14:26:26.068Z,4.47
2023-02-20T14:29:24.154Z,3.90
2023-02-20T14:32:15.726Z,3.70
2023-02-20T14:35:11.731Z,3.73
2023-02-20T14:38:08.256Z,3.67
2023-02-20T14:40:56.395Z,3.60
2023-02-20T14:43:45.788Z,3.63
2023-02-20T14:46:36.141Z,3.60
2023-02-20T14:49:26.798Z,3.67
2023-02-20T14:52:17.965Z,3.80
2023-02-20T14:55:07.784Z,3.80
2023-02-20T14:57:55.561Z,3.67
2023-02-20T15:00:46.505Z,3.47
2023-02-20T15:03:35.086Z,4.13
2023-02-20T15:06:23.186Z,3.90
2023-02-20T15:09:21.860Z,4.00
2023-02-20T15:12:20.813Z,4.17
2023-02-20T15:15:11.418Z,4.27
2023-02-20T15:18:10.749Z,4.03
2023-02-20T15:20:58.550Z,4.10
2023-02-20T15:23:47.511Z,4.40
2023-02-20T15:26:37.273Z,4.67
2023-02-20T15:29:27.409Z,4.70
2023-02-20T15:32:20.223Z,4.50
2023-02-20T15:35:17.774Z,4.77
2023-02-20T15:38:08.579Z,5.50
2023-02-20T15:40:58.242Z,4.53
2023-02-20T15:43:49.742Z,5.40
2023-02-20T15:46:38.878Z,5.87
2023-02-20T15:49:27.137Z,5.60
2023-02-20T15:52:20.088Z,6.00
2023-02-20T15:55:08.421Z,5.73
2023-02-20T15:57:58.946Z,5.63
2023-02-20T16:00:46.914Z,6.00
2023-02-20T16:03:50.604Z,6.40
2023-02-20T16:06:39.269Z,5.60
2023-02-20T16:09:28.483Z,6.53
2023-02-20T16:12:20.032Z,6.47
2023-02-20T16:15:09.382Z,6.40
2023-02-20T16:17:57.486Z,6.43
2023-02-20T16:20:45.407Z,6.77
2023-02-20T16:23:33.919Z,6.80
2023-02-20T16:26:26.158Z,8.87
2023-02-20T16:29:17.692Z,7.63
2023-02-20T16:32:24.602Z,7.83
2023-02-20T16:35:14.408Z,6.73
2023-02-20T16:38:02.340Z,7.03
2023-02-20T16:40:54.782Z,7.33
2023-02-20T16:43:44.132Z,7.77
2023-02-20T16:46:38.465Z,7.57
2023-02-20T16:49:27.208Z,7.13
2023-02-20T16:52:19.311Z,7.37
2023-02-20T16:55:15.751Z,7.13
2023-02-20T16:58:04.174Z,7.27
2023-02-20T17:00:57.788Z,7.10
2023-02-20T17:03:45.946Z,7.07
2023-02-20T17:06:33.720Z,7.13
2023-02-20T17:09:23.209Z,6.80
2023-02-20T17:12:13.242Z,6.70
2023-02-20T17:15:01.565Z,6.90
2023-02-20T17:17:51.147Z,7.00
2023-02-20T17:20:38.921Z,7.07
2023-02-20T17:23:26.713Z,7.27
2023-02-20T17:26:14.561Z,6.97
2023-02-20T17:29:02.384Z,7.97
2023-02-20T17:31:50.560Z,7.10
2023-02-20T17:34:39.957Z,6.70
2023-02-20T17:37:30.416Z,6.70
2023-02-20T17:40:19.025Z,6.60
2023-02-20T17:43:07.238Z,6.63
2023-02-20T17:45:55.070Z,6.30
2023-02-20T17:48:42.906Z,6.57
2023-02-20T17:51:32.019Z,6.20
2023-02-20T17:54:22.817Z,6.07
2023-02-20T17:57:10.841Z,6.60
2023-02-20T17:59:58.643Z,5.73
2023-02-20T18:02:46.816Z,6.50
2023-02-20T18:05:34.674Z,6.60
2023-02-20T18:08:23.890Z,6.83
2023-02-20T18:11:11.756Z,6.57
2023-02-20T18:13:59.805Z,6.83
2023-02-20T18:16:48.401Z,6.97
2023-02-20T18:19:36.217Z,7.10
2023-02-20T18:22:24.032Z,6.83
2023-02-20T18:25:13.298Z,6.80
2023-02-20T18:28:01.585Z,7.33
2023-02-20T18:30:49.498Z,7.20
2023-02-20T18:33:37.640Z,6.93
2023-02-20T18:36:25.941Z,7.20
2023-02-20T18:39:14.898Z,7.33
2023-02-20T18:42:04.075Z,7.20
2023-02-20T18:44:52.309Z,7.00
2023-02-20T18:47:40.177Z,6.63
2023-02-20T18:50:28.004Z,6.13
2023-02-20T18:53:16.538Z,6.73
2023-02-20T18:56:04.513Z,6.63
2023-02-20T18:58:54.117Z,6.80
2023-02-20T19:01:42.733Z,6.57
2023-02-20T19:04:33.148Z,6.17
2023-02-20T19:07:21.154Z,6.50
2023-02-20T19:10:09.616Z,6.63
2023-02-20T19:12:58.126Z,6.30
2023-02-20T19:15:47.451Z,5.90
2023-02-20T19:18:40.048Z,6.20
2023-02-20T19:21:33.710Z,6.50
2023-02-20T19:24:22.193Z,5.60
2023-02-20T19:27:11.709Z,5.10
2023-02-20T19:29:59.553Z,5.43
2023-02-20T19:32:49.027Z,5.50
2023-02-20T19:35:36.936Z,5.53
2023-02-20T19:38:24.797Z,5.60
2023-02-20T19:41:14.076Z,5.30
2023-02-20T19:44:02.097Z,5.87
2023-02-20T19:46:51.670Z,5.70
2023-02-20T19:49:40.849Z,5.67
2023-02-20T19:52:28.774Z,5.70
2023-02-20T19:55:18.715Z,6.13
2023-02-20T19:58:06.527Z,5.20
2023-02-20T20:00:54.520Z,4.80
2023-02-20T20:03:42.479Z,5.13
2023-02-20T20:06:31.629Z,5.33
2023-02-20T20:09:35.161Z,4.90
2023-02-20T20:12:41.610Z,5.00
2023-02-20T20:15:29.532Z,4.70
2023-02-20T20:18:17.356Z,4.10
2023-02-20T20:21:05.661Z,4.60
2023-02-20T20:23:55.772Z,4.10
2023-02-20T20:26:43.638Z,4.73
2023-02-20T20:29:31.549Z,4.27
2023-02-20T20:32:21.439Z,4.00
2023-02-20T20:35:09.531Z,4.30
2023-02-20T20:37:57.845Z,4.37
2023-02-20T20:40:46.959Z,4.50
2023-02-20T20:43:34.951Z,3.97
2023-02-20T20:46:22.961Z,5.03
2023-02-20T20:49:12.424Z,4.93
2023-02-20T20:52:00.298Z,4.63
2023-02-20T20:54:50.033Z,5.27
2023-02-20T20:57:41.038Z,5.40
2023-02-20T21:00:33.715Z,5.40
2023-02-20T21:03:21.567Z,5.23
2023-02-20T21:06:09.556Z,5.40
2023-02-20T21:08:57.420Z,5.80
2023-02-20T21:11:45.960Z,5.90
2023-02-20T21:14:39.849Z,5.20
2023-02-20T21:17:28.087Z,5.50
2023-02-20T21:20:18.392Z,5.10
2023-02-20T21:23:06.745Z,5.20
2023-02-20T21:25:54.616Z,5.33
2023-02-20T21:28:42.460Z,5.90
2023-02-20T21:31:31.889Z,5.03
2023-02-20T21:34:19.771Z,5.57
2023-02-20T21:37:07.895Z,5.63
2023-02-20T21:39:55.750Z,4.87
2023-02-20T21:43:01.001Z,5.50
2023-02-20T21:45:49.818Z,4.70
2023-02-20T21:48:38.988Z,5.57
2023-02-20T21:51:26.823Z,5.50
2023-02-20T21:54:15.953Z,5.40
2023-02-20T21:57:03.834Z,5.73
2023-02-20T21:59:50.591Z,5.80
2023-02-20T22:02:37.893Z,5.43
2023-02-20T22:05:26.202Z,5.90
2023-02-20T22:08:31.569Z,5.67
2023-02-20T22:11:36.864Z,5.53
2023-02-20T22:14:42.174Z,6.57
2023-02-20T22:17:47.592Z,6.27
2023-02-20T22:20:54.308Z,6.33
2023-02-20T22:23:59.651Z,7.47
2023-02-20T22:27:07.560Z,6.43
2023-02-20T22:30:13.609Z,6.87
2023-02-20T22:33:18.937Z,6.53
2023-02-20T22:36:26.231Z,7.13
2023-02-20T22:39:32.648Z,7.40
2023-02-20T22:42:37.964Z,7.43
2023-02-20T22:45:43.373Z,7.23
2023-02-20T22:48:49.195Z,7.70
2023-02-20T22:51:55.855Z,7.50
2023-02-20T22:55:05.639Z,8.30
2023-02-20T22:58:11.419Z,8.43
2023-02-20T23:01:16.746Z,8.33
2023-02-20T23:04:22.644Z,7.83
2023-02-20T23:07:29.170Z,8.43
2023-02-20T23:10:35.806Z,8.90
2023-02-20T23:13:41.575Z,8.30
2023-02-20T23:16:46.812Z,8.10
2023-02-20T23:19:52.466Z,7.73
2023-02-20T23:22:59.091Z,8.37
2023-02-20T23:26:04.514Z,8.47
2023-02-20T23:29:09.853Z,8.77
2023-02-20T23:32:15.443Z,7.87
2023-02-20T23:35:20.701Z,8.20
2023-02-20T23:38:27.244Z,9.00
2023-02-20T23:41:32.383Z,9.10
2023-02-20T23:44:37.714Z,8.80
2023-02-20T23:47:43.083Z,8.20
2023-02-20T23:50:48.372Z,8.60
2023-02-20T23:53:56.764Z,8.47
2023-02-20T23:57:02.289Z,7.93
